Time;durP1;ratioP1;P1;durP2;ratioP2;P2;SDS_P1;SDS_P2;PMS_P1;PMS_P2;Temp;Humidity;BMP_temperature;BMP_pressure;BME280_temperature;BME280_humidity;BME280_pressure;Samples;Min_cycle;Max_cycle;Signal;HPM_P1;HPM_P2
2022/04/28 00:01:28;;;;;;;9.80;6.47;;;7.60;99.60;;;;;;5044723;28;20048;-77
2022/04/28 00:03:54;;;;;;;10.82;6.05;;;7.50;99.90;;;;;;5030578;28;20108;-76
2022/04/28 00:06:20;;;;;;;13.60;6.85;;;7.50;99.90;;;;;;5025605;28;20063;-76
2022/04/28 00:08:45;;;;;;;10.88;7.03;;;7.40;99.90;;;;;;5025172;28;20025;-76
2022/04/28 00:11:11;;;;;;;11.60;7.13;;;7.40;99.90;;;;;;5024085;28;20038;-77
2022/04/28 00:13:37;;;;;;;11.73;6.82;;;7.30;99.90;;;;;;5026107;28;20025;-76
2022/04/28 00:16:03;;;;;;;12.32;7.10;;;7.20;99.90;;;;;;5009545;28;20026;-76
2022/04/28 00:18:29;;;;;;;12.95;7.80;;;7.20;99.90;;;;;;5043222;28;20061;-76
2022/04/28 00:20:54;;;;;;;10.63;6.57;;;7.20;99.90;;;;;;5010330;28;20338;-76
2022/04/28 00:23:20;;;;;;;12.43;7.32;;;7.10;99.90;;;;;;5042069;28;20052;-77
2022/04/28 00:25:45;;;;;;;14.70;7.05;;;7.10;99.90;;;;;;5009233;28;20112;-76
2022/04/28 00:28:11;;;;;;;9.82;7.07;;;7.20;99.90;;;;;;5043980;28;20030;-77
2022/04/28 00:30:36;;;;;;;12.50;7.97;;;7.10;99.90;;;;;;5026909;28;20493;-77
2022/04/28 00:33:02;;;;;;;15.98;7.45;;;7.10;99.90;;;;;;5024953;28;20025;-76
2022/04/28 00:35:27;;;;;;;12.90;7.72;;;7.00;99.90;;;;;;5023695;28;20060;-76
2022/04/28 00:37:53;;;;;;;13.30;7.20;;;7.10;99.90;;;;;;5030358;28;20029;-76
2022/04/28 00:40:18;;;;;;;11.85;6.75;;;7.00;99.90;;;;;;5006342;28;20500;-76
2022/04/28 00:42:44;;;;;;;16.58;8.55;;;7.10;99.90;;;;;;5040761;28;20047;-76
2022/04/28 00:45:09;;;;;;;13.05;8.55;;;7.00;99.90;;;;;;5025827;28;20526;-77
2022/04/28 00:53:04;;;;;;;14.07;8.27;;;6.80;99.90;;;;;;5039681;28;20453;-77
2022/04/28 00:55:30;;;;;;;15.32;8.40;;;6.80;99.90;;;;;;5025554;28;20041;-76
2022/04/28 00:57:55;;;;;;;12.85;8.13;;;6.80;99.90;;;;;;5007475;28;20060;-76
2022/04/28 01:00:21;;;;;;;14.80;7.55;;;6.80;99.90;;;;;;5009858;28;20469;-76
2022/04/28 01:02:46;;;;;;;13.50;8.50;;;6.70;99.90;;;;;;5022747;28;20094;-77
2022/04/28 01:05:12;;;;;;;13.40;8.43;;;6.70;99.90;;;;;;5041828;28;20184;-76
2022/04/28 01:07:37;;;;;;;13.38;8.23;;;6.60;99.90;;;;;;5025426;28;20112;-76
2022/04/28 01:10:04;;;;;;;12.45;8.02;;;6.50;99.90;;;;;;5007727;28;20434;-76
2022/04/28 01:12:29;;;;;;;14.00;8.25;;;6.50;99.90;;;;;;5008093;28;20071;-76
2022/04/28 01:14:55;;;;;;;18.10;9.43;;;6.60;99.90;;;;;;5009885;28;20552;-77
2022/04/28 01:17:21;;;;;;;16.60;8.65;;;6.40;99.90;;;;;;5014590;28;20018;-76
2022/04/28 01:19:49;;;;;;;14.02;9.35;;;6.40;99.90;;;;;;5003196;28;24936;-76
2022/04/28 01:22:15;;;;;;;13.23;9.15;;;6.30;99.90;;;;;;5021367;28;20169;-77
2022/04/28 01:24:40;;;;;;;15.38;9.35;;;6.40;99.90;;;;;;5010150;28;20030;-76
2022/04/28 01:27:06;;;;;;;15.20;9.45;;;6.40;99.90;;;;;;5019942;28;20033;-76
2022/04/28 01:29:33;;;;;;;18.17;9.70;;;6.40;99.90;;;;;;5024832;28;20030;-76
2022/04/28 01:31:58;;;;;;;15.98;10.05;;;6.30;99.90;;;;;;4997531;28;20017;-77
2022/04/28 01:34:24;;;;;;;21.48;10.43;;;6.30;99.90;;;;;;5025705;28;20037;-76
2022/04/28 01:36:50;;;;;;;19.60;11.20;;;6.30;99.90;;;;;;5041366;28;20021;-76
2022/04/28 01:39:15;;;;;;;20.85;11.80;;;6.20;99.90;;;;;;5027760;28;20033;-76
2022/04/28 01:41:42;;;;;;;22.05;10.88;;;6.20;99.90;;;;;;5021672;28;20369;-76
2022/04/28 01:44:07;;;;;;;22.33;10.80;;;6.10;99.90;;;;;;5046182;28;20106;-76
2022/04/28 01:46:33;;;;;;;20.40;11.30;;;6.10;99.90;;;;;;5023388;28;20539;-76
2022/04/28 01:48:59;;;;;;;19.42;10.85;;;6.10;99.90;;;;;;5005456;28;20152;-76
2022/04/28 01:56:52;;;;;;;19.50;11.35;;;6.10;99.90;;;;;;5039663;28;20037;-77
2022/04/28 01:59:18;;;;;;;21.13;11.20;;;6.10;99.90;;;;;;5027549;28;20065;-76
2022/04/28 02:01:43;;;;;;;21.17;11.05;;;6.00;99.90;;;;;;5025536;28;20022;-76
2022/04/28 02:04:09;;;;;;;21.60;11.20;;;6.00;99.90;;;;;;5007632;28;20056;-76
2022/04/28 02:06:34;;;;;;;25.02;11.68;;;5.90;99.90;;;;;;5027689;28;20025;-76
2022/04/28 02:09:00;;;;;;;20.77;11.93;;;6.00;99.90;;;;;;5028154;28;20634;-76
2022/04/28 02:11:25;;;;;;;19.67;12.00;;;6.00;99.90;;;;;;5031965;28;20513;-76
2022/04/28 02:13:51;;;;;;;21.75;11.95;;;5.70;99.90;;;;;;5027846;28;20041;-75
2022/04/28 02:16:17;;;;;;;27.30;12.48;;;5.70;99.90;;;;;;5027925;28;20038;-76
2022/04/28 02:18:43;;;;;;;18.20;11.02;;;5.70;99.90;;;;;;5027424;28;20025;-76
2022/04/28 02:21:09;;;;;;;21.30;11.00;;;5.70;99.90;;;;;;5028003;28;20048;-76
2022/04/28 02:23:34;;;;;;;20.02;11.73;;;5.70;99.90;;;;;;5029970;28;20464;-76
2022/04/28 02:26:00;;;;;;;20.80;11.13;;;5.80;99.90;;;;;;5047086;28;20038;-76
2022/04/28 02:28:25;;;;;;;23.88;12.15;;;5.70;99.90;;;;;;5013350;28;20087;-75
2022/04/28 02:30:51;;;;;;;21.67;12.18;;;5.70;99.90;;;;;;5027468;28;20037;-75
2022/04/28 02:33:18;;;;;;;24.73;11.20;;;5.70;99.90;;;;;;5025645;28;20036;-75
2022/04/28 02:35:44;;;;;;;27.85;11.88;;;5.70;99.90;;;;;;5007781;28;20137;-75
2022/04/28 02:38:09;;;;;;;28.77;11.57;;;5.60;99.90;;;;;;5030148;28;20128;-75
2022/04/28 02:40:35;;;;;;;24.60;11.27;;;5.50;99.90;;;;;;5045974;28;20469;-75
2022/04/28 02:43:00;;;;;;;23.58;12.25;;;5.50;99.90;;;;;;5041725;28;20190;-75
2022/04/28 02:45:26;;;;;;;25.35;11.75;;;;;;;;;;5044268;28;20445;-75
2022/04/28 02:47:52;;;;;;;18.63;12.05;;;5.50;99.90;;;;;;5027690;28;20033;-75
2022/04/28 02:50:21;;;;;;;23.45;11.98;;;5.40;99.90;;;;;;5045854;28;20082;-75
2022/04/28 02:52:47;;;;;;;21.92;12.88;;;5.50;99.90;;;;;;5025954;28;20104;-75
2022/04/28 02:55:12;;;;;;;18.52;12.10;;;5.40;99.90;;;;;;5041745;28;20186;-75
2022/04/28 02:57:38;;;;;;;24.08;12.02;;;5.30;99.90;;;;;;5044720;28;20033;-75
2022/04/28 03:00:05;;;;;;;19.73;11.85;;;5.30;99.90;;;;;;5026946;28;20033;-75
2022/04/28 03:02:31;;;;;;;19.40;11.50;;;5.40;99.90;;;;;;5028640;28;20060;-75
2022/04/28 03:04:57;;;;;;;21.50;11.50;;;5.30;99.90;;;;;;5044248;28;20057;-75
2022/04/28 03:12:51;;;;;;;18.52;11.25;;;5.10;99.90;;;;;;5041430;28;20060;-75
2022/04/28 03:15:17;;;;;;;24.52;12.05;;;5.10;99.90;;;;;;5028942;28;20037;-75
2022/04/28 03:17:43;;;;;;;23.38;12.70;;;4.90;99.90;;;;;;5011662;28;20029;-75
2022/04/28 03:20:09;;;;;;;22.85;11.75;;;5.00;99.90;;;;;;5028091;28;20037;-75
2022/04/28 03:22:36;;;;;;;21.77;12.25;;;5.00;99.90;;;;;;5031267;28;20041;-75
2022/04/28 03:25:02;;;;;;;22.15;12.57;;;4.90;99.90;;;;;;5010081;28;20033;-76
2022/04/28 03:27:28;;;;;;;19.67;12.00;;;4.80;99.90;;;;;;5010459;28;20037;-75
2022/04/28 03:29:53;;;;;;;25.80;12.75;;;4.80;99.90;;;;;;5042498;28;20550;-75
2022/04/28 03:32:19;;;;;;;27.13;12.77;;;4.90;99.90;;;;;;5042431;28;20030;-75
2022/04/28 03:34:44;;;;;;;28.73;13.48;;;4.90;99.90;;;;;;5025859;28;20029;-75
2022/04/28 03:37:10;;;;;;;19.17;12.18;;;4.80;99.90;;;;;;5008086;28;20049;-75
2022/04/28 03:39:37;;;;;;;21.42;12.13;;;4.80;99.90;;;;;;5047091;28;20076;-75
2022/04/28 03:42:04;;;;;;;21.30;11.45;;;4.70;99.90;;;;;;5009369;28;20026;-75
2022/04/28 03:44:30;;;;;;;22.92;13.57;;;4.70;99.90;;;;;;5025399;28;20499;-75
2022/04/28 03:46:56;;;;;;;21.35;12.50;;;4.70;99.90;;;;;;5042974;28;20558;-75
2022/04/28 03:49:21;;;;;;;19.85;12.68;;;4.70;99.90;;;;;;5040613;28;20026;-75
2022/04/28 03:51:47;;;;;;;22.52;12.82;;;4.70;99.90;;;;;;5026878;28;20025;-75
2022/04/28 03:54:12;;;;;;;24.15;12.48;;;4.70;99.90;;;;;;5009846;28;20021;-76
2022/04/28 03:56:38;;;;;;;26.23;14.15;;;4.60;99.90;;;;;;5041098;28;20030;-75
2022/04/28 03:59:04;;;;;;;28.63;13.07;;;4.50;99.90;;;;;;5026761;28;20025;-75
2022/04/28 04:01:29;;;;;;;22.40;12.65;;;4.50;99.90;;;;;;5024251;28;20037;-75
2022/04/28 04:03:55;;;;;;;20.67;13.05;;;4.60;99.90;;;;;;5027913;28;20508;-75
2022/04/28 04:06:20;;;;;;;26.45;13.73;;;4.50;99.90;;;;;;5008296;28;20401;-75
2022/04/28 04:08:46;;;;;;;27.35;13.77;;;4.50;99.90;;;;;;5008886;28;20091;-75
2022/04/28 04:11:12;;;;;;;25.48;13.13;;;4.40;99.90;;;;;;5003442;28;20041;-75
2022/04/28 04:13:38;;;;;;;25.77;13.35;;;4.50;99.90;;;;;;5008144;28;20030;-75
2022/04/28 04:16:04;;;;;;;29.80;13.85;;;4.40;99.90;;;;;;5038443;28;20036;-75
2022/04/28 04:18:30;;;;;;;26.13;13.35;;;4.30;99.90;;;;;;5004320;28;20034;-75
2022/04/28 04:20:55;;;;;;;23.17;12.77;;;4.40;99.90;;;;;;5005662;28;20087;-75
2022/04/28 04:23:21;;;;;;;24.17;13.73;;;4.40;99.90;;;;;;4989500;28;20041;-75
2022/04/28 04:25:46;;;;;;;28.60;14.48;;;4.30;99.90;;;;;;5041159;28;20034;-75
2022/04/28 04:28:12;;;;;;;28.10;14.02;;;4.30;99.90;;;;;;5039647;28;20033;-75
2022/04/28 04:33:22;;;;;;;24.45;14.13;;;4.20;99.90;;;;;;5008033;28;20045;-75
2022/04/28 04:35:47;;;;;;;24.95;13.35;;;4.10;99.90;;;;;;4989151;28;20037;-75
2022/04/28 04:38:13;;;;;;;27.08;15.43;;;4.30;99.90;;;;;;4988510;28;20135;-75
2022/04/28 04:40:38;;;;;;;26.17;14.50;;;4.50;99.90;;;;;;5005986;28;20044;-75
2022/04/28 04:43:05;;;;;;;25.67;15.73;;;4.50;99.90;;;;;;4988444;28;20037;-75
2022/04/28 04:45:31;;;;;;;28.48;16.38;;;4.50;99.90;;;;;;5018217;28;20115;-75
2022/04/28 04:47:56;;;;;;;36.85;16.00;;;4.50;99.90;;;;;;5006006;28;20517;-75
2022/04/28 04:50:22;;;;;;;25.67;13.52;;;4.60;99.90;;;;;;4990491;28;20433;-75
2022/04/28 04:52:48;;;;;;;25.80;14.00;;;4.60;99.90;;;;;;5007661;28;20037;-75
2022/04/28 04:55:13;;;;;;;33.80;15.18;;;4.70;99.90;;;;;;5032095;28;20406;-75
2022/04/28 04:57:39;;;;;;;33.08;15.50;;;4.80;99.90;;;;;;5003600;28;20382;-75
2022/04/28 05:00:08;;;;;;;28.05;15.52;;;4.90;99.90;;;;;;5004632;28;20444;-75
2022/04/28 05:02:33;;;;;;;30.48;15.80;;;5.00;99.90;;;;;;5002928;28;20489;-75
2022/04/28 05:04:59;;;;;;;31.63;16.08;;;5.10;99.90;;;;;;4987861;28;20030;-75
2022/04/28 05:07:31;;;;;;;34.08;15.32;;;5.00;99.90;;;;;;5007589;28;20038;-75
2022/04/28 05:09:57;;;;;;;21.90;14.05;;;5.00;99.90;;;;;;5016455;28;20040;-75
2022/04/28 05:12:22;;;;;;;24.52;14.10;;;5.10;99.90;;;;;;5017131;28;20034;-75
2022/04/28 05:14:48;;;;;;;30.35;15.38;;;5.20;99.90;;;;;;5015212;28;20025;-75
2022/04/28 05:17:14;;;;;;;28.67;14.82;;;5.30;99.90;;;;;;5016614;28;20109;-75
2022/04/28 05:19:39;;;;;;;23.65;14.32;;;5.50;99.90;;;;;;5038283;28;20064;-75
2022/04/28 05:22:05;;;;;;;26.20;13.88;;;5.60;99.90;;;;;;5017213;28;20112;-75
2022/04/28 05:24:30;;;;;;;24.38;13.77;;;5.70;99.90;;;;;;5034760;28;20042;-75
2022/04/28 05:26:56;;;;;;;30.52;13.93;;;5.80;99.90;;;;;;4998576;28;20120;-75
2022/04/28 05:29:21;;;;;;;23.08;13.80;;;6.00;99.90;;;;;;5028883;28;20034;-75
2022/04/28 05:31:47;;;;;;;26.88;14.20;;;6.10;99.90;;;;;;5017190;28;20489;-75
2022/04/28 05:34:12;;;;;;;23.83;13.05;;;6.20;99.90;;;;;;5021452;28;20128;-75
2022/04/28 05:36:38;;;;;;;25.77;13.68;;;6.30;99.90;;;;;;5020991;28;20038;-75
2022/04/28 05:39:04;;;;;;;31.65;15.13;;;6.50;99.90;;;;;;5010120;28;20711;-75
2022/04/28 05:41:29;;;;;;;29.75;15.43;;;6.70;99.90;;;;;;5008934;28;20489;-75
2022/04/28 05:46:39;;;;;;;27.08;13.73;;;6.90;99.90;;;;;;5031043;28;20358;-75
2022/04/28 05:49:07;;;;;;;25.48;13.10;;;7.00;99.90;;;;;;5044299;28;20050;-75
2022/04/28 05:51:33;;;;;;;25.42;13.95;;;7.20;99.90;;;;;;5031075;28;20799;-75
2022/04/28 05:53:58;;;;;;;21.98;12.57;;;7.20;99.90;;;;;;5028082;28;20113;-75
2022/04/28 05:56:24;;;;;;;29.85;14.02;;;7.40;99.90;;;;;;5026895;28;20052;-75
2022/04/28 05:58:50;;;;;;;26.50;13.10;;;7.50;99.90;;;;;;5026698;28;20120;-75
2022/04/28 06:01:16;;;;;;;26.77;13.18;;;7.70;99.90;;;;;;5026698;28;20506;-75
2022/04/28 06:03:41;;;;;;;19.40;12.85;;;7.90;99.90;;;;;;5027344;28;20029;-75
2022/04/28 06:06:07;;;;;;;24.48;13.60;;;8.00;99.90;;;;;;5028734;28;20037;-75
2022/04/28 06:08:33;;;;;;;22.25;13.95;;;8.10;99.90;;;;;;5042077;28;20037;-75
2022/04/28 06:11:00;;;;;;;21.67;14.10;;;8.30;99.90;;;;;;5025739;28;20065;-75
2022/04/28 06:13:26;;;;;;;25.25;13.52;;;8.50;99.90;;;;;;5026475;28;20089;-75
2022/04/28 06:15:51;;;;;;;22.70;14.52;;;8.60;99.90;;;;;;5042795;28;20116;-75
2022/04/28 06:18:18;;;;;;;28.05;15.40;;;8.80;99.90;;;;;;5010600;28;20037;-75
2022/04/28 06:20:43;;;;;;;24.20;14.05;;;8.80;99.90;;;;;;5030158;28;20421;-75
2022/04/28 06:23:10;;;;;;;27.77;13.70;;;8.90;99.90;;;;;;5025116;28;20041;-75
2022/04/28 06:25:35;;;;;;;33.58;16.63;;;9.10;99.90;;;;;;5008555;28;20529;-75
2022/04/28 06:28:01;;;;;;;29.00;14.95;;;9.30;99.90;;;;;;5025533;28;20171;-75
2022/04/28 06:30:26;;;;;;;24.05;14.25;;;9.40;99.90;;;;;;5010477;28;20044;-75
2022/04/28 06:32:52;;;;;;;22.92;14.10;;;9.50;99.90;;;;;;5044258;28;20029;-75
2022/04/28 06:35:17;;;;;;;20.65;13.80;;;9.70;99.90;;;;;;5028128;28;20029;-75
2022/04/28 06:37:43;;;;;;;24.67;14.27;;;9.70;99.90;;;;;;5012920;28;20025;-75
2022/04/28 06:40:11;;;;;;;20.23;12.75;;;9.90;99.90;;;;;;5014270;28;20044;-75
2022/04/28 06:42:39;;;;;;;20.42;13.77;;;10.00;99.90;;;;;;5041789;28;20128;-75
2022/04/28 06:45:05;;;;;;;27.80;13.80;;;10.20;99.90;;;;;;5016064;28;20060;-75
2022/04/28 06:47:31;;;;;;;30.77;13.80;;;10.30;99.90;;;;;;5043522;28;20072;-75
2022/04/28 06:49:57;;;;;;;19.92;12.82;;;10.50;99.90;;;;;;5010229;28;20183;-75
2022/04/28 06:52:22;;;;;;;29.48;14.48;;;10.60;99.90;;;;;;5010209;28;20040;-75
2022/04/28 06:54:48;;;;;;;24.60;13.18;;;10.70;99.90;;;;;;5028376;28;20030;-75
2022/04/28 06:57:13;;;;;;;21.17;14.57;;;10.80;99.90;;;;;;5026828;28;20028;-76
2022/04/28 06:59:39;;;;;;;21.23;12.73;;;10.90;99.90;;;;;;5009827;28;20033;-75
2022/04/28 07:02:04;;;;;;;23.15;14.57;;;11.00;99.90;;;;;;5042787;28;20111;-75
2022/04/28 07:04:31;;;;;;;25.38;13.90;;;11.20;99.90;;;;;;5011024;28;20512;-75
2022/04/28 07:06:56;;;;;;;29.33;13.60;;;11.40;99.90;;;;;;5026257;28;20033;-75
2022/04/28 07:09:22;;;;;;;22.90;13.20;;;11.50;99.90;;;;;;5026252;28;20037;-75
2022/04/28 07:11:47;;;;;;;27.35;12.02;;;11.60;99.90;;;;;;5027616;28;20075;-76
2022/04/28 07:14:13;;;;;;;21.75;13.27;;;11.80;99.90;;;;;;5004908;28;20034;-76
2022/04/28 07:16:38;;;;;;;21.08;12.50;;;11.80;99.90;;;;;;5009778;28;20033;-76
2022/04/28 07:19:06;;;;;;;20.98;13.65;;;11.90;99.90;;;;;;5033001;28;20034;-76
2022/04/28 07:21:32;;;;;;;24.30;12.32;;;12.20;99.90;;;;;;5034503;28;20025;-75
2022/04/28 07:23:57;;;;;;;22.90;11.98;;;12.20;99.90;;;;;;5023542;28;20447;-75
2022/04/28 07:26:23;;;;;;;22.95;14.27;;;12.50;99.90;;;;;;5026680;28;20469;-75
2022/04/28 07:28:48;;;;;;;25.85;12.45;;;12.50;99.90;;;;;;5045931;28;20170;-75
2022/04/28 07:31:13;;;;;;;25.35;12.75;;;12.50;99.90;;;;;;5028322;28;20037;-76
2022/04/28 07:33:39;;;;;;;22.65;12.63;;;12.70;99.90;;;;;;5025451;28;20095;-76
2022/04/28 07:36:05;;;;;;;22.20;12.18;;;12.80;99.90;;;;;;5026308;28;20419;-75
2022/04/28 07:38:30;;;;;;;20.17;12.90;;;13.00;99.90;;;;;;5026331;28;20033;-76
2022/04/28 07:40:56;;;;;;;23.40;12.57;;;13.20;99.90;;;;;;5026710;28;20033;-75
2022/04/28 07:43:21;;;;;;;22.17;12.70;;;13.30;99.90;;;;;;5028248;28;20037;-76
2022/04/28 07:45:47;;;;;;;25.05;12.88;;;13.40;99.90;;;;;;5029518;28;20059;-76
2022/04/28 07:48:13;;;;;;;21.13;12.52;;;13.50;99.90;;;;;;5044617;28;20092;-75
2022/04/28 07:50:39;;;;;;;16.83;12.82;;;13.60;99.90;;;;;;5022338;28;20425;-76
2022/04/28 07:53:04;;;;;;;18.05;11.85;;;13.70;99.90;;;;;;5042244;28;20503;-76
2022/04/28 07:55:30;;;;;;;22.65;12.50;;;13.70;99.90;;;;;;5009212;28;20041;-76
2022/04/28 07:57:55;;;;;;;21.50;13.50;;;13.90;99.90;;;;;;5024275;28;20056;-76
2022/04/28 08:00:21;;;;;;;20.45;12.55;;;14.00;99.90;;;;;;5027621;28;20040;-76
2022/04/28 08:02:46;;;;;;;25.00;13.00;;;14.10;99.90;;;;;;5042665;28;20401;-76
2022/04/28 08:05:15;;;;;;;23.30;12.13;;;14.20;99.90;;;;;;5025887;28;20037;-75
2022/04/28 08:07:40;;;;;;;23.30;13.88;;;14.30;99.90;;;;;;5026558;28;20041;-76
2022/04/28 08:10:06;;;;;;;19.25;13.30;;;14.50;99.90;;;;;;5025694;28;20038;-76
2022/04/28 08:12:33;;;;;;;23.27;12.45;;;14.50;99.90;;;;;;5026658;28;20059;-76
2022/04/28 08:14:58;;;;;;;18.63;12.32;;;14.60;99.90;;;;;;5008314;28;20403;-76
2022/04/28 08:17:24;;;;;;;17.85;11.10;;;14.90;99.90;;;;;;5024613;28;20029;-76
2022/04/28 08:19:49;;;;;;;21.65;13.63;;;14.90;99.90;;;;;;5025824;28;20030;-76
2022/04/28 08:22:15;;;;;;;20.23;12.73;;;15.00;99.90;;;;;;5010137;28;20037;-76
2022/04/28 08:24:40;;;;;;;24.10;12.70;;;15.10;99.90;;;;;;5025016;28;20136;-76
2022/04/28 08:27:06;;;;;;;20.45;11.85;;;15.20;99.90;;;;;;5046908;28;20063;-76
2022/04/28 08:29:31;;;;;;;18.73;12.10;;;15.40;99.90;;;;;;5025357;28;20025;-76
2022/04/28 08:31:57;;;;;;;19.13;12.27;;;15.50;99.90;;;;;;5024606;28;20450;-76
2022/04/28 08:34:22;;;;;;;23.27;12.35;;;15.70;99.90;;;;;;5038929;28;20515;-76
2022/04/28 08:36:49;;;;;;;19.42;12.35;;;15.70;99.90;;;;;;5039075;28;20053;-76
2022/04/28 08:39:15;;;;;;;20.85;11.45;;;15.80;99.90;;;;;;5024606;28;20038;-76
2022/04/28 08:41:47;;;;;;;18.92;11.10;;;15.90;99.90;;;;;;5011346;28;20037;-76
2022/04/28 08:44:18;;;;;;;20.40;12.43;;;16.00;99.90;;;;;;5026201;28;22450;-76
2022/04/28 08:46:51;;;;;;;25.60;12.50;;;16.20;99.90;;;;;;5021504;28;20120;-76
2022/04/28 08:49:38;;;;;;;19.63;11.77;;;16.30;99.90;;;;;;5029026;28;20033;-76
2022/04/28 08:52:04;;;;;;;19.33;13.02;;;16.40;99.90;;;;;;5039069;28;20736;-76
2022/04/28 08:54:30;;;;;;;19.42;11.27;;;16.50;98.50;;;;;;5024807;28;20037;-76
2022/04/28 08:56:57;;;;;;;20.83;11.45;;;16.60;99.90;;;;;;5026006;28;20040;-77
2022/04/28 08:59:22;;;;;;;20.48;11.95;;;16.70;99.20;;;;;;5029347;28;20479;-77
2022/04/28 09:01:50;;;;;;;23.52;12.55;;;16.90;99.20;;;;;;5046338;28;20038;-77
2022/04/28 09:04:17;;;;;;;22.58;12.27;;;16.90;98.10;;;;;;5010612;28;20065;-77
2022/04/28 09:06:42;;;;;;;16.33;12.07;;;17.00;96.80;;;;;;5023753;28;20034;-77
2022/04/28 09:09:12;;;;;;;19.00;12.50;;;17.20;96.00;;;;;;5009686;28;20577;-77
2022/04/28 09:11:40;;;;;;;20.58;12.90;;;17.20;93.90;;;;;;5040987;28;20030;-77
2022/04/28 09:14:09;;;;;;;18.10;11.75;;;17.10;96.50;;;;;;5023906;28;20489;-77
2022/04/28 09:16:38;;;;;;;20.83;11.55;;;17.30;97.20;;;;;;5028354;28;20172;-77
2022/04/28 09:19:04;;;;;;;17.55;12.32;;;17.40;95.30;;;;;;5025503;28;20331;-77
2022/04/28 09:21:35;;;;;;;20.50;11.50;;;17.50;94.40;;;;;;5027879;28;20501;-77
2022/04/28 09:24:02;;;;;;;20.17;12.07;;;17.60;94.50;;;;;;5023874;28;20061;-77
2022/04/28 09:26:28;;;;;;;19.52;12.57;;;17.80;93.80;;;;;;5012563;28;20038;-77
2022/04/28 09:28:53;;;;;;;18.30;10.93;;;17.80;92.90;;;;;;5021009;28;20036;-77
2022/04/28 09:31:19;;;;;;;20.13;11.75;;;17.70;92.40;;;;;;5001833;28;20041;-77
2022/04/28 09:33:46;;;;;;;21.02;11.90;;;17.80;93.40;;;;;;4988666;28;20065;-77
2022/04/28 09:36:12;;;;;;;19.83;11.48;;;18.00;92.50;;;;;;5021897;28;20358;-77
2022/04/28 09:38:38;;;;;;;18.98;12.10;;;18.00;92.50;;;;;;5004051;28;20553;-77
2022/04/28 09:43:51;;;;;;;16.67;11.38;;;18.30;90.90;;;;;;5022888;28;20064;-77
2022/04/28 09:46:23;;;;;;;19.80;11.88;;;18.20;90.80;;;;;;5009373;28;20034;-76
2022/04/28 09:48:49;;;;;;;18.20;12.77;;;18.30;91.30;;;;;;4989413;28;20034;-77
2022/04/28 09:51:20;;;;;;;22.70;12.60;;;18.50;91.10;;;;;;5035442;28;20477;-77
2022/04/28 09:53:45;;;;;;;18.85;12.95;;;18.60;90.90;;;;;;5004983;28;20481;-77
2022/04/28 09:56:11;;;;;;;18.10;12.38;;;18.60;88.30;;;;;;5022485;28;20037;-77
2022/04/28 09:58:38;;;;;;;17.83;11.80;;;18.60;88.50;;;;;;5014134;28;20041;-77
2022/04/28 10:01:04;;;;;;;16.98;9.38;;;18.70;88.20;;;;;;5007251;28;20046;-77
2022/04/28 10:03:32;;;;;;;18.73;11.20;;;18.80;90.30;;;;;;4999113;28;20074;-77
2022/04/28 10:05:58;;;;;;;18.67;13.00;;;19.10;90.30;;;;;;5008363;28;20042;-77
2022/04/28 10:08:24;;;;;;;19.92;13.30;;;19.30;86.50;;;;;;5026256;28;20031;-77
2022/04/28 10:10:52;;;;;;;16.40;10.82;;;19.50;79.00;;;;;;5020016;28;20374;-77
2022/04/28 10:13:18;;;;;;;18.55;11.73;;;19.40;80.50;;;;;;5027945;28;20033;-77
2022/04/28 10:15:43;;;;;;;20.00;12.43;;;19.40;78.90;;;;;;5010527;28;20096;-77
2022/04/28 10:18:10;;;;;;;16.77;11.25;;;19.50;78.30;;;;;;5006911;28;20064;-77
2022/04/28 10:20:41;;;;;;;12.27;9.85;;;19.50;80.80;;;;;;5037022;28;20056;-77
2022/04/28 10:23:08;;;;;;;18.30;11.95;;;19.40;80.90;;;;;;5021962;28;20042;-78
2022/04/28 10:34:12;;;;;;;8.80;6.57;;;19.70;79.90;;;;;;5018395;28;20499;-78
2022/04/28 10:37:13;;;;;;;;;;;20.30;81.50;;;;;;5023538;28;20029;-78
2022/04/28 10:39:43;;;;;;;15.98;11.75;;;20.20;74.40;;;;;;5028020;28;19913;-78
2022/04/28 10:42:20;;;;;;;12.75;8.55;;;20.20;73.90;;;;;;4994649;28;20563;-78
2022/04/28 10:44:54;;;;;;;10.63;6.97;;;20.20;75.90;;;;;;5045238;28;20033;-78
2022/04/28 10:47:38;;;;;;;13.38;9.70;;;20.50;76.20;;;;;;5013252;28;20037;-79
2022/04/28 10:50:25;;;;;;;16.45;10.95;;;20.70;76.90;;;;;;5009518;28;20037;-79
2022/04/28 10:52:55;;;;;;;14.18;10.32;;;20.60;76.50;;;;;;5032626;28;20047;-79
2022/04/28 10:55:23;;;;;;;19.83;11.35;;;20.80;71.80;;;;;;5029327;28;20088;-79
2022/04/28 10:57:50;;;;;;;14.70;11.13;;;20.80;72.20;;;;;;5029026;28;20026;-79
2022/04/28 11:00:34;;;;;;;18.17;12.15;;;21.00;70.80;;;;;;5007400;28;20037;-79
2022/04/28 11:02:59;;;;;;;15.90;11.27;;;21.10;70.20;;;;;;5015793;28;20057;-79
2022/04/28 11:05:30;;;;;;;10.98;8.05;;;21.10;67.40;;;;;;5013090;28;20496;-79
2022/04/28 11:07:59;;;;;;;10.23;7.55;;;21.20;73.90;;;;;;5029783;28;20044;-79
2022/04/28 11:10:27;;;;;;;18.27;12.63;;;21.10;70.10;;;;;;5045396;28;20385;-79
2022/04/28 11:12:55;;;;;;;12.05;9.25;;;21.20;68.80;;;;;;5012155;28;20408;-79
2022/04/28 11:15:21;;;;;;;17.83;12.18;;;21.30;70.60;;;;;;5048483;28;20124;-80
2022/04/28 11:17:46;;;;;;;16.15;11.55;;;21.40;66.10;;;;;;5012843;28;20109;-80
2022/04/28 11:20:13;;;;;;;14.20;10.45;;;21.50;68.80;;;;;;5043946;28;20029;-80
2022/04/28 11:22:41;;;;;;;17.42;11.13;;;22.00;69.90;;;;;;5024976;28;20064;-80
2022/04/28 11:25:11;;;;;;;14.85;11.02;;;21.90;68.80;;;;;;5030620;28;20045;-80
2022/04/28 11:27:36;;;;;;;16.77;10.68;;;21.90;67.70;;;;;;5028200;28;20017;-80
2022/04/28 11:30:03;;;;;;;15.80;11.07;;;21.90;67.10;;;;;;5006367;28;20037;-81
2022/04/28 11:32:29;;;;;;;14.35;9.48;;;22.20;68.50;;;;;;5040629;28;20088;-81
2022/04/28 11:34:58;;;;;;;12.60;9.68;;;22.20;69.20;;;;;;4981289;28;20399;-81
2022/04/28 11:37:25;;;;;;;16.00;10.88;;;22.40;69.50;;;;;;5022906;28;20035;-81
2022/04/28 11:39:56;;;;;;;18.13;11.73;;;22.30;65.70;;;;;;5017469;28;20025;-81
2022/04/28 11:42:24;;;;;;;14.40;9.15;;;22.40;67.20;;;;;;5011673;28;20034;-82
2022/04/28 11:44:55;;;;;;;15.32;11.68;;;22.70;68.90;;;;;;5009175;28;20048;-81
2022/04/28 11:47:21;;;;;;;12.70;10.15;;;22.90;64.20;;;;;;5045140;28;20361;-81
2022/04/28 11:49:49;;;;;;;12.32;8.82;;;22.70;60.80;;;;;;5007825;28;20557;-82
2022/04/28 11:52:18;;;;;;;18.10;11.48;;;22.70;59.80;;;;;;5011223;28;20442;-81
2022/04/28 11:54:44;;;;;;;14.40;11.95;;;22.80;57.30;;;;;;5022876;28;20434;-82
2022/04/28 11:57:10;;;;;;;19.52;10.32;;;22.70;57.90;;;;;;5039588;28;20117;-82
2022/04/28 11:59:37;;;;;;;19.02;11.63;;;22.60;59.40;;;;;;4991182;28;20486;-82
2022/04/28 12:02:03;;;;;;;10.38;8.02;;;22.70;59.10;;;;;;5008089;28;20084;-82
2022/04/28 12:04:28;;;;;;;14.52;9.93;;;22.70;61.70;;;;;;5012949;28;20037;-82
2022/04/28 12:06:54;;;;;;;16.95;11.25;;;22.80;61.90;;;;;;4992926;28;20393;-82
2022/04/28 12:14:48;;;;;;;14.88;10.10;;;23.40;60.10;;;;;;5028181;28;20082;-82
2022/04/28 12:20:04;;;;;;;9.13;6.43;;;23.80;59.40;;;;;;5026476;28;20086;-82
2022/04/28 12:22:34;;;;;;;10.73;7.20;;;25.10;57.00;;;;;;5028467;28;20034;-82
2022/04/28 12:25:05;;;;;;;11.93;8.43;;;24.30;58.70;;;;;;5026797;28;20072;-82
2022/04/28 12:27:44;;;;;;;10.27;8.30;;;24.90;57.60;;;;;;5044741;28;20509;-82
2022/04/28 12:30:12;;;;;;;13.23;11.27;;;24.50;59.10;;;;;;5023798;28;20554;-81
2022/04/28 12:32:43;;;;;;;16.85;11.60;;;24.20;55.30;;;;;;5010643;28;20033;-81
2022/04/28 12:35:09;;;;;;;13.10;9.32;;;24.00;54.30;;;;;;5029094;28;20049;-81
2022/04/28 12:37:38;;;;;;;16.77;11.95;;;24.50;55.10;;;;;;5026747;28;20061;-81
2022/04/28 12:40:04;;;;;;;18.83;10.98;;;24.20;53.30;;;;;;5028331;28;20033;-81
2022/04/28 12:42:44;;;;;;;16.00;10.52;;;24.00;53.80;;;;;;5024184;28;20029;-81
2022/04/28 12:45:10;;;;;;;15.80;10.82;;;24.00;53.10;;;;;;5042555;28;20029;-81
2022/04/28 12:47:36;;;;;;;19.27;11.73;;;24.00;52.70;;;;;;5043080;28;20176;-80
2022/04/28 12:50:17;;;;;;;13.30;11.07;;;24.00;51.60;;;;;;5028300;28;20029;-80
2022/04/28 12:52:43;;;;;;;16.20;11.75;;;24.00;52.30;;;;;;5042345;28;20021;-81
2022/04/28 12:55:09;;;;;;;8.65;6.63;;;24.00;52.20;;;;;;5042897;28;20053;-80
2022/04/28 12:57:34;;;;;;;12.27;6.82;;;24.20;53.90;;;;;;5011876;28;20460;-80
2022/04/28 13:00:01;;;;;;;17.55;11.45;;;24.30;52.80;;;;;;5011887;28;20052;-80
2022/04/28 13:02:30;;;;;;;11.45;9.27;;;24.30;52.50;;;;;;5007037;28;20025;-80
2022/04/28 13:05:17;;;;;;;14.93;9.60;;;24.20;53.00;;;;;;5011526;28;20039;-80
2022/04/28 13:07:43;;;;;;;19.77;11.38;;;24.20;53.70;;;;;;5023287;28;20013;-80
2022/04/28 13:10:09;;;;;;;13.23;9.20;;;24.30;50.30;;;;;;5022690;28;20041;-80
2022/04/28 13:12:35;;;;;;;11.05;8.85;;;24.30;52.60;;;;;;5029244;28;20037;-80
2022/04/28 13:15:02;;;;;;;15.07;8.93;;;24.20;52.00;;;;;;5030263;28;20029;-79